createdAt,value
2022-10-17T00:00:42.670Z,5.22
2022-10-17T00:03:10.358Z,5.10
2022-10-17T00:05:41.995Z,5.13
2022-10-17T00:08:09.893Z,5.14
2022-10-17T00:10:37.576Z,5.06
2022-10-17T00:13:05.053Z,5.06
2022-10-17T00:15:32.938Z,5.21
2022-10-17T00:18:00.106Z,4.99
2022-10-17T00:20:27.314Z,5.09
2022-10-17T00:22:54.834Z,5.02
2022-10-17T00:25:22.043Z,5.12
2022-10-17T00:27:49.133Z,5.00
2022-10-17T00:30:17.222Z,4.77
2022-10-17T00:32:44.436Z,4.73
2022-10-17T00:35:11.824Z,4.74
2022-10-17T00:37:39.253Z,4.81
2022-10-17T00:40:07.107Z,4.71
2022-10-17T00:42:34.245Z,4.55
2022-10-17T00:45:19.232Z,4.46
2022-10-17T00:47:49.140Z,4.35
2022-10-17T00:50:17.736Z,4.09
2022-10-17T00:52:46.062Z,4.11
2022-10-17T00:55:39.573Z,4.23
2022-10-17T00:58:06.967Z,3.90
2022-10-17T01:00:37.060Z,4.04
2022-10-17T01:03:04.545Z,4.25
2022-10-17T01:05:32.407Z,4.28
2022-10-17T01:07:59.766Z,4.33
2022-10-17T01:10:30.063Z,4.26
2022-10-17T01:13:06.227Z,4.12
2022-10-17T01:15:33.306Z,4.23
2022-10-17T01:18:06.958Z,4.36
2022-10-17T01:20:40.144Z,4.39
2022-10-17T01:23:13.577Z,4.37
2022-10-17T01:25:44.172Z,4.33
2022-10-17T01:28:20.090Z,4.33
2022-10-17T01:30:50.298Z,4.34
2022-10-17T01:33:38.078Z,4.27
2022-10-17T01:36:10.506Z,3.79
2022-10-17T01:38:53.264Z,4.04
2022-10-17T01:41:39.263Z,4.03
2022-10-17T01:44:39.286Z,3.82
2022-10-17T01:47:11.968Z,3.72
2022-10-17T01:49:41.145Z,3.88
2022-10-17T01:52:14.665Z,3.87
2022-10-17T01:54:47.796Z,3.87
2022-10-17T01:57:35.254Z,3.88
2022-10-17T02:00:04.911Z,3.92
2022-10-17T02:02:40.355Z,3.78
2022-10-17T02:05:08.604Z,3.88
2022-10-17T02:07:35.742Z,3.84
2022-10-17T02:10:04.660Z,3.98
2022-10-17T02:12:45.825Z,3.90
2022-10-17T02:15:23.769Z,3.80
2022-10-17T02:18:01.135Z,3.99
2022-10-17T02:20:34.306Z,3.95
2022-10-17T02:23:14.002Z,3.94
2022-10-17T02:25:49.156Z,3.88
2022-10-17T02:28:31.685Z,3.82
2022-10-17T02:31:20.358Z,4.03
2022-10-17T02:33:51.775Z,4.08
2022-10-17T02:36:22.600Z,3.83
2022-10-17T02:38:52.872Z,3.69
2022-10-17T02:41:21.531Z,3.92
2022-10-17T02:43:49.968Z,4.04
2022-10-17T02:46:21.343Z,3.98
2022-10-17T02:48:53.703Z,4.01
2022-10-17T02:51:22.001Z,3.82
2022-10-17T02:54:10.065Z,3.61
2022-10-17T02:56:43.108Z,3.53
2022-10-17T02:59:12.514Z,2.76
2022-10-17T03:01:39.766Z,3.36
2022-10-17T03:04:11.185Z,3.37
2022-10-17T03:06:39.240Z,3.22
2022-10-17T03:09:08.105Z,3.31
2022-10-17T03:11:35.320Z,3.46
2022-10-17T03:14:02.829Z,3.49
2022-10-17T03:16:29.984Z,3.56
2022-10-17T03:18:57.160Z,3.64
2022-10-17T03:21:24.628Z,3.62
2022-10-17T03:23:52.101Z,3.70
2022-10-17T03:26:19.706Z,3.58
2022-10-17T03:28:50.658Z,3.72
2022-10-17T03:31:21.062Z,3.89
2022-10-17T03:33:48.991Z,3.81
2022-10-17T03:36:17.446Z,3.66
2022-10-17T03:38:44.991Z,3.55
2022-10-17T03:41:13.140Z,3.48
2022-10-17T03:43:40.231Z,3.55
2022-10-17T03:46:08.333Z,3.58
2022-10-17T03:48:36.996Z,3.78
2022-10-17T03:51:05.706Z,3.59
2022-10-17T03:53:33.702Z,3.57
2022-10-17T03:56:11.391Z,3.62
2022-10-17T03:58:38.868Z,3.65
2022-10-17T04:01:07.541Z,3.73
2022-10-17T04:03:35.124Z,3.80
2022-10-17T04:06:03.071Z,3.83
2022-10-17T04:08:31.905Z,3.80
2022-10-17T04:11:04.937Z,3.86
2022-10-17T04:13:32.279Z,3.84
2022-10-17T04:16:01.328Z,3.87
2022-10-17T04:18:29.306Z,3.90
2022-10-17T04:20:56.671Z,3.80
2022-10-17T04:23:24.101Z,3.68
2022-10-17T04:25:55.594Z,3.55
2022-10-17T04:28:23.982Z,3.60
2022-10-17T04:31:02.421Z,3.36
2022-10-17T04:33:31.591Z,3.46
2022-10-17T04:36:00.152Z,3.61
2022-10-17T04:38:28.703Z,3.76
2022-10-17T04:41:03.691Z,3.71
2022-10-17T04:43:32.224Z,3.23
2022-10-17T04:46:00.225Z,3.14
2022-10-17T04:48:28.239Z,3.30
2022-10-17T04:50:57.079Z,3.63
2022-10-17T04:53:25.445Z,3.68
2022-10-17T04:55:52.661Z,3.75
2022-10-17T04:58:20.837Z,3.82
2022-10-17T05:00:48.432Z,3.96
2022-10-17T05:03:16.964Z,4.13
2022-10-17T05:05:44.651Z,4.20
2022-10-17T05:08:12.690Z,4.33
2022-10-17T05:10:41.073Z,4.29
2022-10-17T05:13:09.223Z,4.27
2022-10-17T05:15:37.183Z,4.37
2022-10-17T05:18:04.744Z,4.30
2022-10-17T05:20:32.794Z,4.19
2022-10-17T05:23:00.530Z,4.22
2022-10-17T05:25:29.028Z,4.11
2022-10-17T05:27:56.461Z,4.26
2022-10-17T05:30:23.596Z,4.34
2022-10-17T05:32:54.971Z,4.43
2022-10-17T05:35:23.685Z,4.50
2022-10-17T05:37:52.230Z,4.66
2022-10-17T05:40:20.258Z,4.54
2022-10-17T05:42:49.642Z,4.40
2022-10-17T05:45:17.899Z,4.47
2022-10-17T05:47:46.241Z,4.56
2022-10-17T05:50:13.951Z,4.50
2022-10-17T05:52:45.081Z,4.55
2022-10-17T05:55:15.426Z,4.48
2022-10-17T05:57:42.549Z,4.79
2022-10-17T06:00:10.705Z,4.79
2022-10-17T06:02:41.310Z,4.59
2022-10-17T06:05:09.383Z,4.79
2022-10-17T06:07:36.867Z,4.88
2022-10-17T06:10:05.030Z,5.15
2022-10-17T06:12:32.683Z,5.19
2022-10-17T06:14:59.904Z,5.25
2022-10-17T06:17:28.326Z,5.27
2022-10-17T06:19:57.281Z,5.40
2022-10-17T06:22:24.533Z,5.37
2022-10-17T06:24:53.869Z,5.42
2022-10-17T06:27:21.570Z,5.64
2022-10-17T06:29:48.978Z,5.95
2022-10-17T06:32:17.290Z,6.09
2022-10-17T06:34:45.211Z,5.73
2022-10-17T06:37:12.358Z,5.70
2022-10-17T06:39:39.780Z,5.75
2022-10-17T06:42:07.848Z,5.81
2022-10-17T06:44:36.292Z,5.48
2022-10-17T06:47:09.788Z,5.60
2022-10-17T06:49:37.224Z,5.60
2022-10-17T06:52:04.630Z,5.85
2022-10-17T06:54:32.636Z,6.03
2022-10-17T06:57:01.111Z,5.95
2022-10-17T06:59:28.831Z,5.78
2022-10-17T07:01:56.655Z,5.96
2022-10-17T07:04:24.010Z,5.80
2022-10-17T07:06:51.265Z,6.15
2022-10-17T07:09:19.134Z,6.33
2022-10-17T07:11:46.469Z,6.60
2022-10-17T07:14:16.469Z,6.72
2022-10-17T07:16:44.162Z,6.96
2022-10-17T07:19:12.144Z,6.80
2022-10-17T07:21:39.619Z,6.77
2022-10-17T07:24:07.713Z,6.83
2022-10-17T07:26:35.001Z,7.30
2022-10-17T07:29:02.569Z,7.84
2022-10-17T07:31:30.192Z,8.27
2022-10-17T07:33:59.305Z,8.51
2022-10-17T07:36:26.666Z,8.93
2022-10-17T07:38:54.892Z,9.12
2022-10-17T07:41:22.239Z,9.12
2022-10-17T07:43:49.621Z,8.94
2022-10-17T07:46:18.949Z,9.08
2022-10-17T07:48:46.248Z,9.39
2022-10-17T07:51:13.470Z,9.50
2022-10-17T07:53:46.442Z,9.99
2022-10-17T07:56:15.970Z,10.40
2022-10-17T07:58:43.427Z,10.45
2022-10-17T08:01:16.219Z,10.78
2022-10-17T08:03:44.526Z,10.87
2022-10-17T08:06:12.067Z,11.12
2022-10-17T08:08:39.193Z,11.44
2022-10-17T08:11:08.012Z,11.75
2022-10-17T08:13:35.627Z,11.86
2022-10-17T08:16:03.655Z,12.03
2022-10-17T08:18:31.163Z,12.05
2022-10-17T08:21:02.209Z,11.90
2022-10-17T08:23:29.333Z,11.64
2022-10-17T08:25:59.209Z,11.50
2022-10-17T08:28:26.330Z,12.16
2022-10-17T08:30:53.490Z,12.73
2022-10-17T08:33:20.902Z,13.21
2022-10-17T08:35:48.322Z,13.56
2022-10-17T08:38:17.806Z,13.51
2022-10-17T08:40:49.210Z,13.93
2022-10-17T08:43:31.233Z,13.82
2022-10-17T08:46:03.763Z,14.31
2022-10-17T08:48:37.362Z,14.90
2022-10-17T08:51:13.332Z,15.11
2022-10-17T08:53:44.035Z,15.30
2022-10-17T08:56:44.093Z,15.10
2022-10-17T08:59:33.617Z,15.42
2022-10-17T09:02:13.564Z,15.92
2022-10-17T09:04:49.894Z,16.24
2022-10-17T09:07:21.117Z,16.40
2022-10-17T09:09:57.470Z,17.01
2022-10-17T09:12:29.287Z,16.88
2022-10-17T09:15:02.711Z,16.44
2022-10-17T09:17:37.329Z,16.34
2022-10-17T09:20:19.815Z,16.12
2022-10-17T09:23:10.203Z,16.31
2022-10-17T09:25:47.682Z,16.12
2022-10-17T09:28:21.327Z,15.92
2022-10-17T09:30:58.333Z,16.24
2022-10-17T09:34:00.219Z,16.39
2022-10-17T09:36:32.966Z,16.64
2022-10-17T09:39:02.213Z,16.21
2022-10-17T09:41:46.846Z,16.89
2022-10-17T09:44:18.075Z,16.82
2022-10-17T09:46:52.407Z,16.79
2022-10-17T09:49:23.652Z,16.89
2022-10-17T09:51:51.091Z,16.93
2022-10-17T09:54:26.784Z,17.16
2022-10-17T09:57:02.008Z,17.16
2022-10-17T09:59:34.276Z,17.34
2022-10-17T10:02:09.219Z,17.47
2022-10-17T10:04:59.655Z,17.43
2022-10-17T10:07:29.106Z,17.44
2022-10-17T10:09:57.312Z,17.34
2022-10-17T10:12:29.721Z,17.06
2022-10-17T10:14:58.041Z,17.37
2022-10-17T10:17:43.287Z,18.03
2022-10-17T10:20:37.457Z,18.12
2022-10-17T10:23:24.740Z,18.29
2022-10-17T10:26:20.935Z,18.52
2022-10-17T10:29:02.257Z,18.75
2022-10-17T10:31:31.903Z,18.90
2022-10-17T10:34:00.465Z,19.01
2022-10-17T10:36:42.368Z,19.27
2022-10-17T10:39:12.512Z,19.47
2022-10-17T10:41:46.727Z,19.06
2022-10-17T10:44:15.599Z,18.63
2022-10-17T10:46:42.697Z,18.38
2022-10-17T10:49:29.009Z,18.64
2022-10-17T10:51:58.825Z,19.31
2022-10-17T10:54:29.997Z,18.80
2022-10-17T10:56:59.981Z,18.16
2022-10-17T10:59:39.852Z,18.89
2022-10-17T11:02:07.586Z,18.74
2022-10-17T11:04:38.372Z,19.06
2022-10-17T11:07:10.433Z,18.84
2022-10-17T11:09:38.127Z,18.89
2022-10-17T11:12:13.595Z,19.12
2022-10-17T11:14:45.119Z,18.94
2022-10-17T11:17:32.663Z,19.22
2022-10-17T11:20:03.306Z,19.49
2022-10-17T11:22:37.643Z,19.52
2022-10-17T11:25:24.201Z,19.33
2022-10-17T11:27:51.426Z,19.27
2022-10-17T11:30:19.040Z,19.43
2022-10-17T11:32:53.954Z,19.29
2022-10-17T11:35:25.239Z,19.18
2022-10-17T11:38:14.066Z,19.04
2022-10-17T11:40:44.686Z,19.28
2022-10-17T11:43:20.582Z,19.53
2022-10-17T11:45:55.669Z,19.43
2022-10-17T11:48:32.025Z,19.24
2022-10-17T11:54:09.447Z,19.76
2022-10-17T11:56:41.809Z,19.96
2022-10-17T11:59:29.898Z,19.53
2022-10-17T12:02:01.747Z,19.43
2022-10-17T12:04:43.774Z,19.87
2022-10-17T12:07:22.473Z,20.16
2022-10-17T12:09:53.401Z,19.84
2022-10-17T12:12:40.586Z,19.68
2022-10-17T12:15:14.000Z,19.80
2022-10-17T12:17:43.985Z,19.74
2022-10-17T12:20:17.552Z,20.35
2022-10-17T12:22:48.434Z,20.44
2022-10-17T12:25:22.458Z,20.62
2022-10-17T12:27:50.524Z,20.20
2022-10-17T12:30:19.970Z,19.95
2022-10-17T12:33:21.989Z,19.81
2022-10-17T12:35:51.192Z,20.38
2022-10-17T12:38:18.300Z,20.41
2022-10-17T12:40:49.095Z,20.17
2022-10-17T12:43:16.664Z,20.48
2022-10-17T12:45:51.728Z,20.74
2022-10-17T12:48:34.626Z,20.96
2022-10-17T12:51:35.782Z,20.67
2022-10-17T12:54:01.659Z,20.68
2022-10-17T12:57:01.512Z,20.42
2022-10-17T12:59:29.583Z,20.25
2022-10-17T13:01:59.971Z,20.30
2022-10-17T13:04:28.335Z,20.10
2022-10-17T13:06:57.252Z,20.65
2022-10-17T13:09:35.526Z,20.85
2022-10-17T13:12:04.836Z,21.18
2022-10-17T13:14:33.479Z,20.82
2022-10-17T13:17:01.836Z,20.78
2022-10-17T13:19:30.883Z,21.13
2022-10-17T13:22:06.390Z,21.05
2022-10-17T13:24:38.534Z,20.77
2022-10-17T13:27:06.934Z,20.79
2022-10-17T13:29:34.519Z,20.89
2022-10-17T13:32:04.127Z,20.95
2022-10-17T13:34:31.972Z,21.21
2022-10-17T13:37:01.568Z,21.19
2022-10-17T13:42:29.620Z,22.70
2022-10-17T13:44:57.963Z,22.69
2022-10-17T13:47:27.595Z,22.66
2022-10-17T13:49:55.751Z,23.23
2022-10-17T13:52:27.051Z,23.54
2022-10-17T13:54:56.128Z,24.64
2022-10-17T13:57:25.205Z,23.96
2022-10-17T13:59:59.978Z,24.83
2022-10-17T14:02:29.120Z,25.26
2022-10-17T14:05:18.178Z,25.49
2022-10-17T14:08:09.840Z,24.88
2022-10-17T14:10:35.480Z,27.38
2022-10-17T14:13:04.549Z,25.46
2022-10-17T14:15:33.948Z,25.78
2022-10-17T14:18:07.537Z,25.71
2022-10-17T14:23:36.509Z,28.11
2022-10-17T14:26:08.591Z,29.01
2022-10-17T14:28:36.824Z,29.05
2022-10-17T14:31:14.313Z,29.72
2022-10-17T14:33:50.525Z,31.01
2022-10-17T14:36:19.651Z,30.05
2022-10-17T14:38:48.370Z,29.73
2022-10-17T14:44:08.488Z,26.84
2022-10-17T14:46:36.219Z,25.08
2022-10-17T14:49:19.430Z,24.12
2022-10-17T14:52:11.406Z,23.29
2022-10-17T14:54:40.782Z,22.22
2022-10-17T14:57:17.195Z,21.42
2022-10-17T14:59:59.659Z,20.90
2022-10-17T15:02:28.754Z,20.63
2022-10-17T15:04:56.320Z,20.25
2022-10-17T15:07:24.081Z,19.38
2022-10-17T15:09:52.673Z,19.65
2022-10-17T15:12:21.618Z,19.00
2022-10-17T15:14:49.293Z,18.73
2022-10-17T15:17:20.834Z,18.26
2022-10-17T15:19:48.398Z,18.21
2022-10-17T15:22:18.585Z,17.80
2022-10-17T15:24:46.467Z,17.88
2022-10-17T15:27:18.143Z,17.75
2022-10-17T15:29:45.913Z,17.33
2022-10-17T15:32:13.513Z,16.79
2022-10-17T15:34:41.312Z,16.89
2022-10-17T15:37:15.605Z,16.69
2022-10-17T15:39:42.728Z,16.77
2022-10-17T15:42:11.798Z,16.26
2022-10-17T15:44:40.546Z,16.04
2022-10-17T15:47:11.295Z,15.91
2022-10-17T15:49:38.772Z,15.74
2022-10-17T15:52:08.792Z,15.61
2022-10-17T15:54:36.650Z,15.59
2022-10-17T15:57:04.250Z,15.25
2022-10-17T15:59:32.621Z,14.89
2022-10-17T16:01:59.895Z,14.81
2022-10-17T16:04:29.225Z,14.60
2022-10-17T16:06:56.315Z,14.60
2022-10-17T16:09:23.563Z,14.52
2022-10-17T16:11:51.089Z,14.34
2022-10-17T16:14:18.377Z,14.13
2022-10-17T16:16:45.633Z,14.17
2022-10-17T16:19:13.131Z,14.03
2022-10-17T16:21:41.031Z,13.80
2022-10-17T16:24:10.663Z,13.67
2022-10-17T16:26:39.044Z,13.47
2022-10-17T16:29:06.237Z,13.45
2022-10-17T16:31:34.798Z,13.41
2022-10-17T16:34:03.200Z,13.24
2022-10-17T16:36:30.389Z,13.12
2022-10-17T16:38:57.802Z,13.28
2022-10-17T16:41:26.617Z,13.07
2022-10-17T16:43:54.790Z,12.69
2022-10-17T16:46:22.468Z,12.65
2022-10-17T16:48:50.402Z,12.61
2022-10-17T16:51:18.928Z,12.60
2022-10-17T16:53:46.768Z,12.50
2022-10-17T16:56:15.318Z,12.28
2022-10-17T16:58:42.922Z,12.25
2022-10-17T17:01:15.274Z,12.45
2022-10-17T17:03:43.765Z,12.30
2022-10-17T17:06:15.934Z,11.90
2022-10-17T17:08:43.792Z,11.94
2022-10-17T17:11:13.847Z,11.90
2022-10-17T17:13:42.803Z,11.56
2022-10-17T17:16:14.936Z,11.37
2022-10-17T17:18:42.226Z,11.35
2022-10-17T17:21:10.707Z,11.39
2022-10-17T17:23:39.588Z,11.38
2022-10-17T17:26:07.982Z,11.24
2022-10-17T17:28:35.864Z,11.28
2022-10-17T17:31:02.987Z,11.06
2022-10-17T17:33:30.350Z,11.14
2022-10-17T17:35:58.947Z,11.02
2022-10-17T17:38:28.424Z,10.92
2022-10-17T17:40:56.728Z,10.77
2022-10-17T17:43:25.149Z,10.45
2022-10-17T17:45:52.250Z,10.38
2022-10-17T17:48:19.462Z,10.47
2022-10-17T17:50:47.238Z,10.42
2022-10-17T17:53:15.395Z,10.43
2022-10-17T17:55:42.583Z,10.36
2022-10-17T17:58:11.336Z,10.33
2022-10-17T18:00:38.853Z,10.10
2022-10-17T18:03:06.787Z,10.23
2022-10-17T18:05:37.112Z,10.18
2022-10-17T18:08:06.779Z,9.76
2022-10-17T18:10:34.242Z,9.59
2022-10-17T18:13:01.373Z,9.56
2022-10-17T18:15:28.535Z,9.68
2022-10-17T18:17:55.924Z,9.60
2022-10-17T18:20:23.201Z,9.74
2022-10-17T18:22:50.211Z,9.50
2022-10-17T18:25:17.616Z,9.38
2022-10-17T18:27:44.694Z,9.31
2022-10-17T18:30:11.932Z,8.78
2022-10-17T18:32:40.835Z,9.06
2022-10-17T18:35:08.093Z,9.05
2022-10-17T18:37:35.205Z,8.97
2022-10-17T18:40:03.287Z,8.97
2022-10-17T18:42:30.777Z,8.77
2022-10-17T18:44:58.030Z,8.83
2022-10-17T18:47:25.452Z,8.84
2022-10-17T18:49:52.584Z,8.78
2022-10-17T18:52:19.747Z,8.69
2022-10-17T18:54:47.139Z,8.82
2022-10-17T18:57:14.264Z,8.47
2022-10-17T18:59:41.385Z,8.34
2022-10-17T19:02:13.009Z,8.42
2022-10-17T19:04:40.499Z,8.42
2022-10-17T19:07:07.624Z,8.32
2022-10-17T19:09:35.431Z,8.37
2022-10-17T19:12:02.492Z,8.33
2022-10-17T19:14:30.682Z,8.48
2022-10-17T19:16:59.797Z,8.37
2022-10-17T19:19:27.144Z,8.32
2022-10-17T19:21:54.315Z,8.33
2022-10-17T19:24:22.822Z,8.06
2022-10-17T19:26:50.972Z,7.95
2022-10-17T19:29:18.388Z,7.77
2022-10-17T19:31:46.687Z,7.80
2022-10-17T19:34:14.201Z,7.81
2022-10-17T19:36:41.856Z,7.89
2022-10-17T19:39:14.331Z,7.61
2022-10-17T19:41:42.413Z,7.63
2022-10-17T19:44:10.250Z,7.56
2022-10-17T19:46:37.357Z,7.67
2022-10-17T19:49:04.985Z,7.47
2022-10-17T19:51:32.868Z,7.58
2022-10-17T19:54:00.793Z,7.36
2022-10-17T19:56:29.080Z,7.31
2022-10-17T19:58:57.242Z,7.22
2022-10-17T20:01:29.414Z,7.28
2022-10-17T20:03:57.134Z,7.20
2022-10-17T20:06:24.784Z,7.20
2022-10-17T20:08:51.845Z,7.33
2022-10-17T20:11:20.747Z,7.23
2022-10-17T20:27:27.870Z,6.57
2022-10-17T20:29:55.719Z,6.52
2022-10-17T20:32:22.816Z,6.26
2022-10-17T20:34:49.957Z,6.47
2022-10-17T20:37:17.354Z,6.25
2022-10-17T20:39:44.556Z,6.35
2022-10-17T20:42:11.592Z,6.44
2022-10-17T20:44:39.105Z,6.37
2022-10-17T20:47:15.966Z,6.07
2022-10-17T20:49:43.826Z,5.95
2022-10-17T20:52:11.398Z,6.07
2022-10-17T20:54:38.603Z,5.99
2022-10-17T20:57:06.828Z,5.91
2022-10-17T20:59:36.205Z,5.95
2022-10-17T21:02:03.961Z,6.13
2022-10-17T21:04:47.484Z,5.93
2022-10-17T21:07:14.984Z,5.84
2022-10-17T21:09:42.466Z,5.96
2022-10-17T21:12:09.758Z,5.75
2022-10-17T21:14:36.841Z,5.89
2022-10-17T21:17:05.506Z,6.01
2022-10-17T21:19:32.818Z,5.90
2022-10-17T21:32:55.619Z,5.82
2022-10-17T21:35:23.436Z,5.33
2022-10-17T21:37:51.275Z,5.37
2022-10-17T21:40:18.475Z,5.47
2022-10-17T21:42:45.891Z,5.41
2022-10-17T21:45:15.872Z,5.38
2022-10-17T21:48:11.567Z,5.25
2022-10-17T21:50:39.524Z,4.98
2022-10-17T21:53:06.886Z,4.96
2022-10-17T21:55:35.959Z,5.13
2022-10-17T21:58:03.808Z,5.22
2022-10-17T22:00:31.161Z,4.97
2022-10-17T22:02:58.542Z,5.12
2022-10-17T22:05:25.633Z,5.23
2022-10-17T22:07:52.749Z,5.19
2022-10-17T22:10:20.144Z,5.06
2022-10-17T22:12:47.357Z,4.81
2022-10-17T22:17:46.817Z,4.90
2022-10-17T22:20:14.218Z,5.07
2022-10-17T22:22:41.334Z,4.83
2022-10-17T22:25:09.007Z,4.96
2022-10-17T22:27:36.112Z,5.02
2022-10-17T22:30:03.862Z,4.86
2022-10-17T22:32:31.275Z,4.52
2022-10-17T22:34:58.362Z,4.68
2022-10-17T22:37:25.457Z,4.16
2022-10-17T22:39:52.962Z,4.47
2022-10-17T22:42:20.039Z,4.29
2022-10-17T22:44:47.899Z,4.08
2022-10-17T22:47:15.393Z,3.95
2022-10-17T22:49:42.458Z,4.04
2022-10-17T22:52:09.733Z,3.97
2022-10-17T22:54:37.135Z,4.07
2022-10-17T22:57:05.362Z,4.19
2022-10-17T22:59:33.520Z,4.25
2022-10-17T23:02:00.995Z,4.13
2022-10-17T23:04:28.118Z,3.87
2022-10-17T23:06:55.201Z,4.04
2022-10-17T23:09:22.686Z,4.10
2022-10-17T23:11:49.786Z,4.09
2022-10-17T23:14:17.478Z,4.05
2022-10-17T23:16:44.914Z,3.66
2022-10-17T23:19:12.017Z,3.69
2022-10-17T23:21:39.118Z,3.09
2022-10-17T23:24:06.771Z,3.42
2022-10-17T23:26:33.887Z,3.29
2022-10-17T23:29:01.080Z,3.64
2022-10-17T23:31:28.585Z,3.82
2022-10-17T23:33:55.693Z,3.69
2022-10-17T23:36:22.951Z,3.86
2022-10-17T23:38:52.658Z,3.76
2022-10-17T23:41:22.188Z,3.61
2022-10-17T23:43:49.334Z,3.69
2022-10-17T23:46:17.106Z,3.73
2022-10-17T23:48:44.196Z,3.95
2022-10-17T23:51:11.533Z,3.66
2022-10-17T23:53:39.501Z,3.48
2022-10-17T23:56:07.936Z,3.28
2022-10-17T23:58:35.090Z,3.49
